Time;durP1;ratioP1;P1;durP2;ratioP2;P2;SDS_P1;SDS_P2;PMS_P1;PMS_P2;Temp;Humidity;BMP_temperature;BMP_pressure;BME280_temperature;BME280_humidity;BME280_pressure;Samples;Min_cycle;Max_cycle;Signal;HPM_P1;HPM_P2
2023/07/30 00:00:15;;;;;;;4.43;2.95;;;;;;;27.47;52.32;100636.72;5062015;28;20041;-58
2023/07/30 00:02:42;;;;;;;4.25;3.20;;;;;;;27.47;52.20;100636.72;5073163;28;20087;-58
2023/07/30 00:05:10;;;;;;;6.30;3.25;;;;;;;27.48;52.12;100652.00;5064819;28;20045;-58
2023/07/30 00:07:37;;;;;;;4.50;3.15;;;;;;;27.49;52.58;100652.84;5065796;28;20390;-53
2023/07/30 00:10:05;;;;;;;5.38;3.72;;;;;;;27.49;52.37;100656.41;5072743;28;20049;-54
2023/07/30 00:12:32;;;;;;;4.25;3.28;;;;;;;27.49;52.10;100650.13;5061153;28;20059;-54
2023/07/30 00:15:00;;;;;;;4.85;3.47;;;;;;;27.49;52.19;100652.84;5069461;28;20041;-55
2023/07/30 00:17:27;;;;;;;4.68;3.20;;;;;;;27.49;52.50;100656.41;5068591;28;20059;-58
2023/07/30 00:19:54;;;;;;;4.47;3.72;;;;;;;27.50;52.19;100655.34;5062401;28;20046;-58
2023/07/30 00:22:22;;;;;;;4.72;3.20;;;;;;;27.51;52.33;100657.06;5072921;28;20061;-58
2023/07/30 00:24:50;;;;;;;4.13;3.40;;;;;;;27.52;52.51;100647.88;5064406;28;20056;-58
2023/07/30 00:27:17;;;;;;;6.78;3.00;;;;;;;27.52;52.59;100647.88;5065122;28;20055;-58
2023/07/30 00:29:49;;;;;;;4.13;3.05;;;;;;;27.52;52.50;100647.03;5063351;28;20051;-58
2023/07/30 00:32:16;;;;;;;4.78;3.28;;;;;;;27.52;52.43;100634.28;5061097;28;20067;-58
2023/07/30 00:34:44;;;;;;;6.57;3.95;;;;;;;27.53;52.23;100635.13;5063098;28;20056;-58
2023/07/30 00:37:11;;;;;;;3.85;2.92;;;;;;;27.53;52.29;100627.78;5062343;28;20049;-54
2023/07/30 00:39:39;;;;;;;4.90;2.92;;;;;;;27.54;52.50;100637.63;5072797;28;20411;-55
2023/07/30 00:42:06;;;;;;;4.40;3.00;;;;;;;27.54;52.63;100632.19;5060593;28;20049;-54
2023/07/30 00:44:34;;;;;;;5.03;3.17;;;;;;;27.54;52.38;100637.63;5060172;28;20492;-55
2023/07/30 00:47:03;;;;;;;4.55;3.22;;;;;;;27.55;52.07;100652.94;5060704;28;20048;-58
2023/07/30 00:49:30;;;;;;;4.35;2.80;;;;;;;27.56;52.24;100673.66;5063033;28;20059;-58
2023/07/30 00:51:58;;;;;;;4.20;2.95;;;;;;;27.56;52.19;100679.09;5060109;28;20495;-58
2023/07/30 00:54:26;;;;;;;4.18;2.90;;;;;;;27.57;52.65;100685.38;5060222;28;20052;-58
2023/07/30 00:56:53;;;;;;;4.00;2.80;;;;;;;27.57;52.50;100707.13;5059920;28;20041;-54
2023/07/30 00:59:21;;;;;;;3.63;2.83;;;;;;;27.56;52.23;100709.00;5062986;28;20059;-55
2023/07/30 01:01:51;;;;;;;5.60;3.60;;;;;;;27.57;52.63;100707.13;5071790;28;20052;-53
2023/07/30 01:04:19;;;;;;;4.88;3.05;;;;;;;27.58;52.50;100725.13;5057883;28;20049;-54
2023/07/30 01:06:46;;;;;;;4.60;3.35;;;;;;;27.58;52.39;100704.19;5060177;28;20045;-55
2023/07/30 01:09:14;;;;;;;4.32;3.53;;;;;;;27.58;52.64;100696.03;5069233;28;20044;-53
2023/07/30 01:11:43;;;;;;;5.68;3.50;;;;;;;27.58;52.60;100693.31;5058710;28;20476;-53
2023/07/30 01:14:11;;;;;;;4.18;3.20;;;;;;;27.59;52.62;100697.75;5059771;28;20045;-54
2023/07/30 01:16:38;;;;;;;5.00;3.30;;;;;;;27.59;52.45;100686.88;5060237;28;20041;-58
2023/07/30 01:19:06;;;;;;;4.50;2.47;;;;;;;27.59;52.63;100695.03;5069779;28;20048;-58
2023/07/30 01:21:35;;;;;;;5.57;3.70;;;;;;;27.60;52.24;100706.75;5070968;28;20063;-58
2023/07/30 01:24:03;;;;;;;4.10;2.97;;;;;;;27.60;52.40;100698.59;5063611;28;20055;-58
2023/07/30 01:26:48;;;;;;;4.03;2.67;;;;;;;27.60;52.29;100685.84;5062100;28;20037;-58
2023/07/30 01:29:24;;;;;;;6.75;3.28;;;;;;;27.59;52.30;100684.16;5071342;28;20049;-58
2023/07/30 01:31:57;;;;;;;5.20;3.17;;;;;;;27.60;52.35;100687.72;5055464;28;20049;-58
2023/07/30 01:34:27;;;;;;;4.25;2.95;;;;;;;27.60;52.71;100704.03;5065376;28;20508;-58
2023/07/30 01:36:57;;;;;;;3.70;2.70;;;;;;;27.60;52.49;100702.16;5061779;28;20037;-52
2023/07/30 01:39:25;;;;;;;4.53;2.65;;;;;;;27.61;52.35;100700.28;5055141;28;20048;-53
2023/07/30 01:41:55;;;;;;;5.90;2.58;;;;;;;27.61;52.25;100706.53;5063677;28;20052;-54
2023/07/30 01:44:23;;;;;;;4.45;2.88;;;;;;;27.61;52.16;100706.53;5062000;28;20488;-54
2023/07/30 01:46:50;;;;;;;3.88;3.15;;;;;;;27.62;52.62;100707.38;5059177;28;20064;-58
2023/07/30 01:49:17;;;;;;;3.55;2.15;;;;;;;27.63;52.31;100736.28;5054853;28;20060;-58
2023/07/30 01:51:45;;;;;;;4.57;2.95;;;;;;;27.63;52.41;100744.44;5063633;28;20114;-58
2023/07/30 01:54:13;;;;;;;4.75;2.80;;;;;;;27.64;52.30;100745.28;5060390;28;20045;-58
2023/07/30 01:56:40;;;;;;;3.75;2.38;;;;;;;27.64;52.42;100739.84;5070857;28;20520;-58
2023/07/30 01:59:07;;;;;;;5.05;2.75;;;;;;;27.63;52.36;100739.00;5060544;28;20542;-58
2023/07/30 02:01:35;;;;;;;3.80;2.47;;;;;;;27.63;52.71;100728.13;5062812;28;20056;-58
2023/07/30 02:04:03;;;;;;;3.80;2.80;;;;;;;27.62;52.47;100715.53;5069695;28;20411;-58
2023/07/30 02:06:31;;;;;;;4.05;2.35;;;;;;;27.63;52.63;100713.66;5058303;28;20056;-57
2023/07/30 02:08:58;;;;;;;3.45;2.33;;;;;;;27.61;52.83;100709.28;5069423;28;20154;-53
2023/07/30 02:11:25;;;;;;;4.40;2.40;;;;;;;27.62;52.37;100712.81;5063454;28;20381;-54
2023/07/30 02:13:53;;;;;;;3.42;2.30;;;;;;;27.63;52.46;100709.09;5069522;28;20381;-54
2023/07/30 02:16:20;;;;;;;3.15;2.15;;;;;;;27.65;52.46;100706.19;5058001;28;20071;-54
2023/07/30 02:18:48;;;;;;;3.55;2.22;;;;;;;27.65;52.72;100698.00;5067205;28;20052;-58
2023/07/30 02:21:15;;;;;;;3.03;2.30;;;;;;;27.66;52.39;100708.69;5063176;28;20393;-58
2023/07/30 02:23:42;;;;;;;3.15;2.13;;;;;;;27.65;52.57;100698.84;5062285;28;20408;-59
2023/07/30 02:26:10;;;;;;;3.40;2.30;;;;;;;27.65;52.83;100696.13;5059345;28;20048;-58
2023/07/30 02:28:37;;;;;;;3.45;2.33;;;;;;;27.66;52.86;100699.69;5063386;28;20049;-58
2023/07/30 02:31:05;;;;;;;4.80;2.20;;;;;;;27.65;52.70;100715.19;5057686;28;20362;-58
2023/07/30 02:33:32;;;;;;;3.35;2.13;;;;;;;27.65;52.63;100719.78;5060174;28;20048;-58
2023/07/30 02:36:00;;;;;;;3.42;2.28;;;;;;;27.66;52.64;100714.13;5057238;28;20061;-58
2023/07/30 02:38:27;;;;;;;3.70;2.42;;;;;;;27.67;53.13;100709.53;5066573;28;20049;-55
2023/07/30 02:40:55;;;;;;;4.35;2.40;;;;;;;27.67;53.06;100717.69;5063611;28;20044;-54
2023/07/30 02:43:23;;;;;;;3.40;2.25;;;;;;;27.66;52.78;100716.00;5060469;28;20056;-54
2023/07/30 02:45:50;;;;;;;3.50;2.30;;;;;;;27.67;53.01;100712.25;5057082;28;20049;-54
2023/07/30 02:48:18;;;;;;;3.05;2.30;;;;;;;27.68;53.04;100713.97;5063539;28;20053;-58
2023/07/30 02:50:45;;;;;;;3.95;2.10;;;;;;;27.67;53.01;100706.81;5055738;28;20370;-58
2023/07/30 02:53:12;;;;;;;3.20;2.20;;;;;;;27.67;53.08;100717.69;5060190;28;20080;-58
2023/07/30 02:55:40;;;;;;;3.45;2.10;;;;;;;27.67;53.26;100701.38;5057849;28;20068;-58
2023/07/30 02:58:07;;;;;;;2.90;1.65;;;;;;;27.67;52.91;100693.22;5065000;28;20409;-52
2023/07/30 03:00:34;;;;;;;3.75;2.25;;;;;;;27.67;52.91;100694.09;5058340;28;20041;-54
2023/07/30 03:03:03;;;;;;;3.28;2.15;;;;;;;27.66;53.02;100692.38;5059935;28;20041;-53
2023/07/30 03:05:30;;;;;;;2.35;1.75;;;;;;;27.67;53.29;100698.66;5059885;28;20040;-54
2023/07/30 03:07:58;;;;;;;3.10;2.00;;;;;;;27.68;53.28;100697.66;5058065;28;20380;-58
2023/07/30 03:10:25;;;;;;;2.75;1.77;;;;;;;27.68;53.27;100692.22;5057714;28;20082;-58
2023/07/30 03:12:52;;;;;;;3.13;1.85;;;;;;;27.68;53.40;100698.47;5059731;28;20048;-58
2023/07/30 03:15:20;;;;;;;3.22;1.92;;;;;;;27.67;53.39;100702.25;5059964;28;20051;-58
2023/07/30 03:17:47;;;;;;;2.55;1.75;;;;;;;27.68;53.03;100694.94;5057510;28;20045;-54
2023/07/30 03:20:15;;;;;;;2.95;1.88;;;;;;;27.69;53.02;100688.44;5058106;28;20057;-54
2023/07/30 03:22:42;;;;;;;2.80;1.75;;;;;;;27.68;53.05;100686.75;5054500;28;20048;-54
2023/07/30 03:25:10;;;;;;;3.47;1.70;;;;;;;27.69;53.37;100691.16;5055090;28;20070;-54
2023/07/30 03:27:37;;;;;;;2.70;1.85;;;;;;;27.69;53.36;100693.88;5067178;28;20037;-54
2023/07/30 03:30:05;;;;;;;5.15;1.88;;;;;;;27.68;53.39;100698.47;5064529;28;20059;-55
2023/07/30 03:32:32;;;;;;;2.83;1.88;;;;;;;27.69;53.63;100694.72;5069330;28;20044;-54
2023/07/30 03:35:00;;;;;;;2.42;1.48;;;;;;;27.69;53.36;100699.31;5073226;28;20083;-52
2023/07/30 03:37:27;;;;;;;2.65;1.63;;;;;;;27.69;53.04;100699.31;5064444;28;20472;-58
2023/07/30 03:39:54;;;;;;;3.83;1.83;;;;;;;27.69;53.12;100689.28;5065579;28;20085;-58
2023/07/30 03:42:22;;;;;;;3.35;1.90;;;;;;;27.70;53.15;100696.41;5070706;28;20056;-58
2023/07/30 03:44:49;;;;;;;2.70;1.80;;;;;;;27.70;53.20;100698.28;5062436;28;20045;-59
2023/07/30 03:47:17;;;;;;;3.63;2.13;;;;;;;27.70;53.53;100695.56;5066592;28;20045;-54
2023/07/30 03:49:44;;;;;;;2.90;1.90;;;;;;;27.69;53.51;100699.31;5068143;28;20049;-53
2023/07/30 03:52:11;;;;;;;2.95;1.85;;;;;;;27.69;53.21;100697.44;5063936;28;20049;-53
2023/07/30 03:54:40;;;;;;;2.42;1.63;;;;;;;27.70;53.24;100703.72;5060639;28;20049;-53
2023/07/30 03:57:07;;;;;;;2.42;1.45;;;;;;;27.70;53.56;100706.44;5069850;28;20037;-53
2023/07/30 03:59:34;;;;;;;2.90;1.70;;;;;;;27.70;53.25;100695.56;5066632;28;20055;-53
2023/07/30 04:02:02;;;;;;;2.63;1.20;;;;;;;27.70;53.20;100701.00;5062226;28;20053;-54
2023/07/30 04:04:29;;;;;;;3.38;1.77;;;;;;;27.70;53.62;100699.13;5060384;28;20496;-54
2023/07/30 04:06:59;;;;;;;2.50;1.45;;;;;;;27.70;53.48;100690.97;5067831;28;20045;-58
2023/07/30 04:09:26;;;;;;;2.70;1.38;;;;;;;27.70;53.47;100696.41;5056592;28;20533;-58
2023/07/30 04:11:54;;;;;;;2.85;1.92;;;;;;;27.70;53.13;100693.69;5062085;28;20420;-58
2023/07/30 04:14:21;;;;;;;2.60;1.42;;;;;;;27.70;53.49;100690.97;5060573;28;20417;-58
2023/07/30 04:16:49;;;;;;;2.65;1.70;;;;;;;27.70;53.16;100695.56;5068844;28;20056;-58
2023/07/30 04:19:16;;;;;;;2.20;1.17;;;;;;;27.70;53.47;100681.97;5056318;28;20082;-58
2023/07/30 04:21:43;;;;;;;2.47;1.33;;;;;;;27.71;53.38;100680.91;5069470;28;20056;-58
2023/07/30 04:24:11;;;;;;;3.25;1.50;;;;;;;27.69;53.45;100678.41;5062654;28;20044;-58
2023/07/30 04:26:38;;;;;;;3.75;1.90;;;;;;;27.69;53.05;100674.84;5060634;28;20416;-57
2023/07/30 04:29:06;;;;;;;3.88;1.65;;;;;;;27.70;53.45;100681.97;5060617;28;20488;-58
2023/07/30 04:31:33;;;;;;;3.20;1.38;;;;;;;27.71;53.31;100680.91;5069189;28;20523;-58
2023/07/30 04:34:01;;;;;;;3.50;1.77;;;;;;;27.70;53.01;100684.69;5059776;28;20053;-58
2023/07/30 04:36:30;;;;;;;3.03;1.73;;;;;;;27.70;53.25;100687.41;5068239;28;20064;-58
2023/07/30 04:38:58;;;;;;;2.30;1.48;;;;;;;27.70;53.40;100682.81;5068298;28;20542;-53
2023/07/30 04:41:31;;;;;;;2.13;1.17;;;;;;;27.70;53.11;100685.53;5058350;28;20053;-54
2023/07/30 04:44:03;;;;;;;3.45;1.52;;;;;;;27.70;53.01;100679.25;5071631;28;20060;-54
2023/07/30 04:46:33;;;;;;;2.85;1.58;;;;;;;27.70;53.15;100681.97;5058270;28;20052;-54
2023/07/30 04:49:03;;;;;;;1.95;1.10;;;;;;;27.70;53.37;100690.97;5071169;28;20416;-54
2023/07/30 04:51:31;;;;;;;2.40;1.48;;;;;;;27.71;53.42;100684.50;5061298;28;20496;-53
2023/07/30 04:53:58;;;;;;;3.08;1.33;;;;;;;27.71;53.39;100683.63;5059251;28;20049;-54
2023/07/30 04:56:26;;;;;;;2.40;1.60;;;;;;;27.71;53.22;100687.22;5063988;28;20056;-54
2023/07/30 04:58:54;;;;;;;3.17;1.45;;;;;;;27.71;53.13;100683.63;5061800;28;20053;-59
2023/07/30 05:01:21;;;;;;;2.72;1.33;;;;;;;27.72;53.11;100693.50;5071684;28;20045;-58
2023/07/30 05:03:49;;;;;;;2.75;1.38;;;;;;;27.71;53.31;100676.34;5061382;28;20048;-59
2023/07/30 05:06:16;;;;;;;2.28;1.30;;;;;;;27.73;53.33;100684.31;5066741;28;20519;-58
2023/07/30 05:08:44;;;;;;;3.20;1.63;;;;;;;27.70;53.18;100688.25;5069365;28;20045;-58
2023/07/30 05:11:11;;;;;;;2.28;1.55;;;;;;;27.71;53.56;100692.66;5074952;28;20049;-59
2023/07/30 05:13:38;;;;;;;2.67;1.58;;;;;;;27.71;53.33;100695.38;5060911;28;20511;-58
2023/07/30 05:16:06;;;;;;;3.53;1.40;;;;;;;27.72;53.54;100690.78;5066898;28;20041;-58
2023/07/30 05:18:33;;;;;;;2.17;1.25;;;;;;;27.71;53.22;100695.38;5068732;28;20044;-58
2023/07/30 05:21:01;;;;;;;2.55;1.70;;;;;;;27.71;53.51;100706.28;5060028;28;20037;-58
2023/07/30 05:23:28;;;;;;;2.58;1.10;;;;;;;27.72;53.55;100709.81;5070761;28;20052;-58
2023/07/30 05:25:55;;;;;;;3.03;1.67;;;;;;;27.72;53.52;100721.53;5066035;28;20045;-58
2023/07/30 05:28:23;;;;;;;3.47;1.40;;;;;;;27.73;53.29;100725.09;5068704;28;20052;-58
2023/07/30 05:30:50;;;;;;;3.20;1.40;;;;;;;27.72;53.47;100721.53;5059920;28;20511;-58
2023/07/30 05:33:17;;;;;;;2.05;1.30;;;;;;;27.73;53.35;100719.66;5070570;28;20057;-58
2023/07/30 05:35:48;;;;;;;2.17;1.15;;;;;;;27.73;53.23;100722.38;5064932;28;20055;-58
2023/07/30 05:38:15;;;;;;;2.50;1.50;;;;;;;27.73;53.67;100727.81;5063196;28;20049;-54
2023/07/30 05:40:42;;;;;;;2.58;1.48;;;;;;;27.73;53.55;100736.84;5071666;28;20045;-54
2023/07/30 05:43:10;;;;;;;2.50;1.15;;;;;;;27.73;53.47;100730.56;5061017;28;20404;-54
2023/07/30 05:45:37;;;;;;;3.03;1.40;;;;;;;27.73;53.61;100728.69;5066334;28;20044;-55
2023/07/30 05:48:05;;;;;;;2.33;1.33;;;;;;;27.73;53.52;100739.59;5068570;28;20511;-58
2023/07/30 05:50:32;;;;;;;1.88;1.08;;;;;;;27.74;53.60;100737.69;5071689;28;20040;-58
2023/07/30 05:52:59;;;;;;;2.42;1.10;;;;;;;27.75;53.52;100744.81;5058154;28;20045;-58
2023/07/30 05:55:26;;;;;;;1.90;1.10;;;;;;;27.75;53.43;100736.66;5058576;28;20393;-58
2023/07/30 05:57:55;;;;;;;2.35;1.20;;;;;;;27.73;53.77;100739.59;5059779;28;20049;-58
2023/07/30 06:00:24;;;;;;;2.45;1.58;;;;;;;27.75;53.31;100742.97;5071091;28;20045;-58
2023/07/30 06:02:51;;;;;;;2.63;1.50;;;;;;;27.75;53.41;100750.25;5060605;28;20053;-58
2023/07/30 06:05:18;;;;;;;2.35;1.20;;;;;;;27.74;53.34;100740.41;5057949;28;20052;-58
2023/07/30 06:07:46;;;;;;;3.58;1.65;;;;;;;27.75;53.63;100744.81;5060271;28;20044;-58
2023/07/30 06:10:13;;;;;;;2.47;1.15;;;;;;;27.75;53.30;100753.84;5070461;28;20040;-58
2023/07/30 06:12:40;;;;;;;5.03;1.40;;;;;;;27.75;53.37;100750.25;5058943;28;20516;-58
2023/07/30 06:15:09;;;;;;;2.58;1.40;;;;;;;27.74;53.54;100760.31;5054453;28;20060;-58
2023/07/30 06:17:36;;;;;;;2.05;1.13;;;;;;;27.75;53.26;100766.59;5055492;28;20044;-54
2023/07/30 06:20:05;;;;;;;2.90;1.40;;;;;;;27.75;53.19;100759.28;5061513;28;20036;-54
2023/07/30 06:22:32;;;;;;;2.42;1.33;;;;;;;27.76;53.21;100763.69;5058574;28;20056;-55
2023/07/30 06:24:59;;;;;;;2.38;1.20;;;;;;;27.77;53.20;100772.69;5058511;28;20503;-54
2023/07/30 06:27:27;;;;;;;2.13;0.90;;;;;;;27.77;53.59;100761.81;5059508;28;20048;-54
2023/07/30 06:29:54;;;;;;;2.13;1.10;;;;;;;27.77;53.34;100756.38;5061205;28;20044;-54
2023/07/30 06:32:21;;;;;;;3.03;1.38;;;;;;;27.78;53.10;100760.78;5058256;28;20400;-54
2023/07/30 06:34:49;;;;;;;2.35;1.10;;;;;;;27.78;53.39;100766.22;5058089;28;20064;-54
2023/07/30 06:37:17;;;;;;;2.20;1.17;;;;;;;27.79;53.46;100768.75;5054982;28;20072;-58
2023/07/30 06:39:44;;;;;;;3.22;1.15;;;;;;;27.80;53.53;100764.16;5069689;28;20043;-58
2023/07/30 06:42:11;;;;;;;2.60;1.20;;;;;;;27.80;53.58;100769.59;5058084;28;20104;-58
2023/07/30 06:44:39;;;;;;;2.40;1.38;;;;;;;27.80;53.16;100762.28;5058328;28;20049;-58
2023/07/30 06:47:06;;;;;;;2.20;1.30;;;;;;;27.81;53.61;100768.56;5059205;28;20061;-53
2023/07/30 06:49:34;;;;;;;1.92;1.10;;;;;;;27.81;53.65;100768.56;5070496;28;20040;-53
2023/07/30 06:52:01;;;;;;;2.90;1.25;;;;;;;27.81;53.47;100771.28;5058404;28;20405;-51
2023/07/30 06:54:29;;;;;;;2.42;1.20;;;;;;;27.81;53.65;100768.56;5058165;28;20045;-61
2023/07/30 06:56:57;;;;;;;3.47;1.60;;;;;;;27.78;53.65;100769.78;5058868;28;20051;-61
2023/07/30 06:59:24;;;;;;;7.00;1.88;;;;;;;27.74;53.43;100765.75;5069611;28;20048;-62
2023/07/30 07:01:51;;;;;;;3.97;1.88;;;;;;;27.67;53.38;100767.53;5059518;28;20048;-62
2023/07/30 07:04:19;;;;;;;4.55;2.20;;;;;;;27.60;53.48;100763.84;5064985;28;20051;-60
2023/07/30 07:06:46;;;;;;;2.95;1.50;;;;;;;27.54;53.60;100762.72;5067125;28;20048;-61
2023/07/30 07:09:14;;;;;;;2.28;1.60;;;;;;;27.48;53.51;100758.03;5057553;28;20481;-63
2023/07/30 07:11:41;;;;;;;2.22;1.40;;;;;;;27.44;52.86;100755.91;5068424;28;20044;-63
2023/07/30 07:14:08;;;;;;;3.28;1.40;;;;;;;27.40;52.93;100758.13;5063659;28;20384;-61
2023/07/30 07:16:36;;;;;;;2.25;1.30;;;;;;;27.36;52.85;100759.53;5064223;28;20071;-55
2023/07/30 07:19:03;;;;;;;4.25;1.73;;;;;;;27.37;52.94;100750.34;5069558;28;20045;-57
2023/07/30 07:21:30;;;;;;;2.35;1.50;;;;;;;27.37;52.71;100755.78;5059395;28;20056;-57
2023/07/30 07:23:58;;;;;;;2.40;1.58;;;;;;;27.36;52.35;100760.38;5064315;28;20041;-57
2023/07/30 07:26:25;;;;;;;2.15;1.48;;;;;;;27.35;52.26;100753.25;5058351;28;20040;-58
2023/07/30 07:28:56;;;;;;;2.17;1.23;;;;;;;27.35;52.30;100753.25;5069824;28;20404;-57
2023/07/30 07:31:23;;;;;;;2.10;1.20;;;;;;;27.36;52.43;100757.66;5057928;28;20057;-57
2023/07/30 07:33:51;;;;;;;2.60;1.65;;;;;;;27.38;52.68;100756.63;5057606;28;20052;-58
2023/07/30 07:36:18;;;;;;;2.22;1.52;;;;;;;27.41;52.88;100757.09;5055016;28;20045;-58
2023/07/30 07:38:46;;;;;;;2.92;1.73;;;;;;;27.44;52.92;100756.72;5060017;28;20071;-51
2023/07/30 07:41:16;;;;;;;2.75;1.80;;;;;;;27.46;52.66;100759.25;5058015;28;20052;-51
2023/07/30 07:43:44;;;;;;;2.45;1.58;;;;;;;27.47;52.74;100761.81;5057684;28;20052;-53
2023/07/30 07:46:14;;;;;;;2.85;1.90;;;;;;;27.48;52.85;100762.63;5059118;28;20045;-52
2023/07/30 07:48:44;;;;;;;;;;;;;;;27.45;52.81;100758.41;5057309;28;20497;-57
2023/07/30 07:51:12;;;;;;;5.57;1.92;;;;;;;27.47;52.95;100752.81;5066037;28;19927;-58
2023/07/30 07:53:40;;;;;;;3.67;2.00;;;;;;;27.50;52.95;100753.25;5057366;28;20052;-58
2023/07/30 07:56:07;;;;;;;3.10;1.83;;;;;;;27.52;52.86;100748.47;5059688;28;20048;-58
2023/07/30 07:58:38;;;;;;;2.88;1.80;;;;;;;27.52;52.98;100745.75;5058395;28;20052;-52
2023/07/30 08:01:05;;;;;;;2.50;1.50;;;;;;;27.53;52.82;100747.44;5057492;28;20496;-51
2023/07/30 08:03:32;;;;;;;3.17;1.23;;;;;;;27.52;51.95;100753.91;5057404;28;20060;-53
2023/07/30 08:06:00;;;;;;;2.47;1.35;;;;;;;27.51;51.69;100760.41;5060241;28;20055;-52
2023/07/30 08:08:27;;;;;;;2.63;1.30;;;;;;;27.49;51.46;100765.16;5058461;28;20364;-53
2023/07/30 08:10:55;;;;;;;3.90;1.80;;;;;;;27.50;51.44;100766.00;5057339;28;20091;-52
2023/07/30 08:13:22;;;;;;;3.13;1.40;;;;;;;27.52;51.67;100764.78;5057339;28;20049;-53
2023/07/30 08:15:50;;;;;;;3.20;1.75;;;;;;;27.55;51.80;100769.03;5059930;28;20055;-54
2023/07/30 08:18:20;;;;;;;3.13;1.73;;;;;;;27.57;52.10;100770.50;5054298;28;20049;-57
2023/07/30 08:20:49;;;;;;;2.90;1.92;;;;;;;27.59;52.46;100776.63;5067920;28;20389;-57
2023/07/30 08:23:17;;;;;;;2.78;1.50;;;;;;;27.59;52.27;100771.19;5060892;28;20053;-57
2023/07/30 08:25:44;;;;;;;2.80;1.70;;;;;;;27.60;52.36;100774.75;5064350;28;20045;-57
2023/07/30 08:28:11;;;;;;;2.78;1.88;;;;;;;27.61;52.34;100784.56;5061468;28;20044;-50
2023/07/30 08:30:38;;;;;;;2.53;1.48;;;;;;;27.59;52.07;100779.34;5067825;28;20412;-52
2023/07/30 08:33:06;;;;;;;2.97;2.05;;;;;;;27.58;52.09;100769.47;5069975;28;20055;-52
2023/07/30 08:35:33;;;;;;;2.72;1.90;;;;;;;27.59;52.17;100770.34;5062189;28;20049;-54
2023/07/30 08:38:01;;;;;;;3.05;2.03;;;;;;;27.59;52.07;100773.91;5072821;28;20045;-53
2023/07/30 08:40:29;;;;;;;3.05;1.80;;;;;;;27.60;51.91;100770.13;5064738;28;20052;-54
2023/07/30 08:42:57;;;;;;;2.83;1.90;;;;;;;27.62;51.97;100769.94;5071834;28;20048;-57
2023/07/30 08:45:24;;;;;;;2.60;1.52;;;;;;;27.65;51.89;100763.28;5059884;28;20071;-52
2023/07/30 08:47:52;;;;;;;3.67;1.83;;;;;;;27.67;51.71;100772.09;5061060;28;20041;-57
2023/07/30 08:50:20;;;;;;;6.53;1.80;;;;;;;27.69;52.02;100761.88;5068698;28;20052;-58
2023/07/30 08:52:48;;;;;;;3.05;1.42;;;;;;;27.72;51.91;100758.78;5060424;28;20049;-56
2023/07/30 08:55:17;;;;;;;3.00;1.63;;;;;;;27.73;52.37;100766.78;5072013;28;20051;-57
2023/07/30 08:57:45;;;;;;;2.72;1.52;;;;;;;27.77;52.04;100767.25;5067670;28;20055;-57
2023/07/30 09:00:16;;;;;;;3.35;1.70;;;;;;;27.78;52.66;100768.94;5070093;28;20062;-57
2023/07/30 09:02:50;;;;;;;3.83;1.80;;;;;;;27.78;52.17;100768.94;5060998;28;20051;-57
2023/07/30 09:05:22;;;;;;;3.72;2.08;;;;;;;27.78;51.97;100766.22;5059997;28;20037;-57
2023/07/30 09:07:50;;;;;;;2.90;1.65;;;;;;;27.76;51.63;100771.84;5058973;28;20044;-56
2023/07/30 09:10:17;;;;;;;3.55;2.10;;;;;;;27.75;51.48;100758.41;5066788;28;20071;-56
2023/07/30 09:12:45;;;;;;;2.65;1.80;;;;;;;27.75;51.48;100762.00;5062171;28;20045;-57
2023/07/30 09:15:16;;;;;;;2.60;1.65;;;;;;;27.77;51.51;100756.38;5065497;28;20047;-58
2023/07/30 09:17:45;;;;;;;2.83;1.63;;;;;;;27.78;51.50;100758.06;5063754;28;20500;-58
2023/07/30 09:20:12;;;;;;;2.47;1.65;;;;;;;27.80;51.46;100753.28;5069809;28;20048;-56
2023/07/30 09:22:40;;;;;;;2.80;1.67;;;;;;;27.79;51.83;100751.56;5061979;28;20048;-57
2023/07/30 09:25:08;;;;;;;2.70;1.77;;;;;;;27.78;51.48;100747.16;5071190;28;20385;-58
2023/07/30 09:27:36;;;;;;;3.28;1.98;;;;;;;27.80;51.61;100750.56;5069418;28;20051;-57
2023/07/30 09:30:06;;;;;;;2.78;1.77;;;;;;;27.80;51.92;100747.84;5070055;28;20063;-57
2023/07/30 09:32:35;;;;;;;2.78;1.88;;;;;;;27.81;51.67;100744.06;5071120;28;20051;-57
2023/07/30 09:35:10;;;;;;;3.22;1.80;;;;;;;27.82;51.85;100740.31;5057784;28;20536;-57
2023/07/30 09:37:40;;;;;;;3.00;1.80;;;;;;;27.82;51.94;100738.44;5073425;28;20045;-55
2023/07/30 09:40:10;;;;;;;3.30;2.17;;;;;;;27.83;52.09;100740.13;5069488;28;20048;-56
2023/07/30 09:42:39;;;;;;;2.72;1.58;;;;;;;27.83;52.05;100736.56;5070837;28;20051;-55
2023/07/30 09:45:16;;;;;;;2.45;1.55;;;;;;;27.86;52.23;100738.91;5065430;28;20049;-57
2023/07/30 09:47:48;;;;;;;3.72;1.92;;;;;;;27.87;52.22;100737.03;5063638;28;20051;-58
2023/07/30 09:50:15;;;;;;;2.60;1.77;;;;;;;27.87;52.36;100737.03;5065571;28;20112;-55
2023/07/30 09:52:43;;;;;;;2.33;1.60;;;;;;;27.88;52.53;100731.41;5066326;28;20052;-54
2023/07/30 09:55:12;;;;;;;2.78;1.73;;;;;;;27.88;52.41;100730.56;5067786;28;20477;-54
2023/07/30 09:57:39;;;;;;;3.50;2.08;;;;;;;27.88;52.28;100745.00;5063471;28;20048;-56
2023/07/30 10:00:11;;;;;;;3.13;1.90;;;;;;;27.90;52.56;100734.75;5059981;28;20045;-50
2023/07/30 10:02:43;;;;;;;4.60;1.95;;;;;;;27.92;52.70;100737.31;5065797;28;20517;-56
2023/07/30 10:05:23;;;;;;;3.08;1.85;;;;;;;27.93;52.86;100739.84;5064774;28;20045;-54
2023/07/30 10:07:59;;;;;;;4.72;2.38;;;;;;;27.93;52.80;100733.56;5059714;28;20041;-55
2023/07/30 10:10:29;;;;;;;3.80;1.77;;;;;;;27.95;52.63;100736.91;5057052;28;20432;-55
2023/07/30 10:13:00;;;;;;;2.78;1.73;;;;;;;27.99;52.78;100736.31;5067349;28;20045;-55
2023/07/30 10:15:27;;;;;;;2.70;1.70;;;;;;;28.05;53.38;100734.75;5064209;28;20041;-53
2023/07/30 10:17:57;;;;;;;3.22;1.90;;;;;;;28.06;52.85;100728.25;5067201;28;20067;-49
2023/07/30 10:20:29;;;;;;;3.17;2.00;;;;;;;28.07;53.18;100728.03;5057131;28;20400;-50
2023/07/30 10:22:58;;;;;;;4.28;1.88;;;;;;;28.09;53.06;100736.88;5065884;28;20044;-50
2023/07/30 10:25:55;;;;;;;3.40;1.80;;;;;;;28.09;53.39;100730.59;5070664;28;20400;-56
2023/07/30 10:28:33;;;;;;;2.35;1.58;;;;;;;28.09;53.07;100733.31;5070133;28;20044;-52
2023/07/30 10:31:07;;;;;;;3.08;2.03;;;;;;;28.09;53.12;100742.31;5055772;28;20037;-54
2023/07/30 10:33:52;;;;;;;3.08;2.05;;;;;;;28.09;53.12;100733.31;5059285;28;20756;-54
2023/07/30 10:36:45;;;;;;;3.33;1.95;;;;;;;28.07;53.13;100738.94;5056988;28;20049;-55
2023/07/30 10:39:21;;;;;;;3.45;2.35;;;;;;;28.06;52.74;100734.53;5066722;28;20040;-55
2023/07/30 10:41:51;;;;;;;3.17;2.45;;;;;;;28.05;52.55;100730.13;5061597;28;20411;-54
2023/07/30 10:44:30;;;;;;;4.25;2.83;;;;;;;28.06;52.56;100720.94;5057776;28;20493;-50
2023/07/30 10:46:59;;;;;;;2.92;1.92;;;;;;;28.06;52.62;100723.66;5061623;28;20056;-58
2023/07/30 10:49:27;;;;;;;3.28;2.40;;;;;;;28.11;52.60;100720.34;5064641;28;20040;-57
2023/07/30 10:51:57;;;;;;;2.95;2.05;;;;;;;28.19;52.90;100716.66;5068917;28;20047;-54
2023/07/30 10:54:25;;;;;;;5.50;2.20;;;;;;;28.23;52.62;100713.34;5064997;28;20378;-57
2023/07/30 10:56:54;;;;;;;3.80;2.45;;;;;;;28.24;52.80;100716.94;5067424;28;20040;-53
2023/07/30 10:59:22;;;;;;;2.67;2.03;;;;;;;28.23;53.08;100710.63;5067013;28;20048;-56
2023/07/30 11:01:50;;;;;;;3.45;2.60;;;;;;;28.24;53.14;100708.78;5060769;28;20045;-56
2023/07/30 11:04:19;;;;;;;3.58;2.30;;;;;;;28.24;53.18;100715.06;5061206;28;20049;-54
2023/07/30 11:06:49;;;;;;;3.17;2.05;;;;;;;28.23;53.03;100707.91;5059355;28;20493;-56
2023/07/30 11:09:24;;;;;;;2.97;1.95;;;;;;;28.26;53.10;100714.84;5054353;28;20489;-51
2023/07/30 11:11:54;;;;;;;4.35;2.58;;;;;;;28.31;51.86;100699.63;5066024;28;20477;-53
2023/07/30 11:14:25;;;;;;;3.58;2.15;;;;;;;28.36;51.74;100707.25;5068386;28;20384;-54
2023/07/30 11:16:58;;;;;;;3.70;2.50;;;;;;;28.45;51.19;100700.63;5057642;28;20045;-53
2023/07/30 11:19:27;;;;;;;3.65;2.13;;;;;;;28.48;51.14;100699.38;5069015;28;20049;-57
2023/07/30 11:21:56;;;;;;;3.17;2.33;;;;;;;28.48;51.18;100699.38;5068099;28;20086;-57
2023/07/30 11:24:34;;;;;;;3.30;2.25;;;;;;;28.46;51.77;100691.41;5072263;28;20515;-56
2023/07/30 11:27:02;;;;;;;3.03;1.88;;;;;;;28.43;51.52;100691.81;5066983;28;20051;-58
2023/07/30 11:29:30;;;;;;;4.25;2.75;;;;;;;28.43;52.01;100686.34;5070701;28;20056;-57